
Distance (Route):
Temperature : -6.8°C
Humidity : 7.6%
Pressure : 0hPa| Receiver | Frames | First received | Last received |
|---|---|---|---|
| KE7DJD | 347 | 2026-08-30 17:06:24 | 2026-08-30 19:09:39 |
| Receiver | Date | Latitude | Longitude | Direction | Speed | Altitude | Climb | Temperature | Humidity | Pressure | Voltage | Killtimer | Uptime | BKT | XDATA |
|---|---|---|---|---|---|---|---|---|---|---|---|---|---|---|---|
| KE7DJD | 2026-08-30 19:09:39 | 43.49599 | -115.49780 | 106° | 42km/h | 4970m | -16.4m/s | -6.8°C | 7.6% | 0hPa | 0V | 08:08:00 | 00:00:00 | 00:00:00 | |
| KE7DJD | 2026-08-30 19:09:17 | 43.49648 | -115.50110 | 106° | 44km/h | 5304m | -14.7m/s | -9.1°C | 5.7% | 0hPa | 0V | 08:09:00 | 00:00:00 | 00:00:00 | |
| KE7DJD | 2026-08-30 19:08:56 | 43.49683 | -115.50422 | 101° | 47km/h | 5586m | -12.8m/s | -10.1°C | 7.6% | 0hPa | 0V | 08:09:00 | 00:00:00 | 00:00:00 | |
| KE7DJD | 2026-08-30 19:08:35 | 43.49730 | -115.50764 | 102° | 51km/h | 5816m | -10.5m/s | -11.0°C | 11.2% | 0hPa | 0V | 08:10:00 | 00:00:00 | 00:00:00 | |
| KE7DJD | 2026-08-30 19:08:15 | 43.49767 | -115.51130 | 95° | 55km/h | 6008m | -11.5m/s | -11.9°C | 10.3% | 0hPa | 0V | 08:10:00 | 00:00:00 | 00:00:00 | |
| KE7DJD | 2026-08-30 19:07:54 | 43.49788 | -115.51540 | 97° | 58km/h | 6191m | -8.9m/s | -13.1°C | 11.9% | 0hPa | 0V | 08:11:00 | 00:00:00 | 00:00:00 | |
| KE7DJD | 2026-08-30 19:07:34 | 43.49828 | -115.51937 | 102° | 60km/h | 6386m | -9.7m/s | -14.7°C | 8.0% | 0hPa | 0V | 08:11:00 | 00:00:00 | 00:00:00 | |
| KE7DJD | 2026-08-30 19:07:13 | 43.49887 | -115.52367 | 103° | 55km/h | 6634m | -13.6m/s | -16.4°C | 7.6% | 0hPa | 0V | 08:11:00 | 00:00:00 | 00:00:00 | |
| KE7DJD | 2026-08-30 19:06:52 | 43.49952 | -115.52773 | 103° | 58km/h | 6929m | -15.8m/s | -18.3°C | 33.9% | 0hPa | 0V | 08:12:00 | 00:00:00 | 00:00:00 | |
| KE7DJD | 2026-08-30 19:06:32 | 43.50006 | -115.53188 | 99° | 66km/h | 7183m | -11.4m/s | -20.2°C | 38.6% | 0hPa | 0V | 08:12:00 | 00:00:00 | 00:00:00 | |
| KE7DJD | 2026-08-30 19:06:11 | 43.50052 | -115.53699 | 98° | 75km/h | 7393m | -9.8m/s | -21.9°C | 44.4% | 0hPa | 0V | 08:12:00 | 00:00:00 | 00:00:00 | |
| KE7DJD | 2026-08-30 19:05:51 | 43.50119 | -115.54192 | 102° | 71km/h | 7601m | -12.5m/s | -23.4°C | 39.3% | 0hPa | 0V | 08:12:00 | 00:00:00 | 00:00:00 | |
| KE7DJD | 2026-08-30 19:05:31 | 43.50188 | -115.54666 | 105° | 62km/h | 7855m | -12.4m/s | -25.4°C | 41.4% | 0hPa | 0V | 08:12:00 | 00:00:00 | 00:00:00 | |
| KE7DJD | 2026-08-30 19:05:10 | 43.50267 | -115.55067 | 108° | 60km/h | 8124m | -14.1m/s | -27.4°C | 43.1% | 0hPa | 0V | 08:13:00 | 00:00:00 | 00:00:00 | |
| KE7DJD | 2026-08-30 19:04:49 | 43.50372 | -115.55476 | 116° | 58km/h | 8434m | -14.5m/s | -29.5°C | 36.6% | 0hPa | 0V | 08:13:00 | 00:00:00 | 00:00:00 | |
| KE7DJD | 2026-08-30 19:04:29 | 43.50550 | -115.55865 | 123° | 69km/h | 8775m | -16.8m/s | -32.0°C | 35.0% | 0hPa | 0V | 08:14:00 | 00:00:00 | 00:00:00 | |
| KE7DJD | 2026-08-30 19:04:09 | 43.50741 | -115.56252 | 128° | 68km/h | 9106m | -14.7m/s | -34.8°C | 37.4% | 0hPa | 0V | 08:14:00 | 00:00:00 | 00:00:00 | |
| KE7DJD | 2026-08-30 19:03:48 | 43.50959 | -115.56633 | 132° | 68km/h | 9352m | -12.3m/s | -36.8°C | 33.5% | 0hPa | 0V | 08:14:00 | 00:00:00 | 00:00:00 | |
| KE7DJD | 2026-08-30 19:03:27 | 43.51200 | -115.57001 | 134° | 69km/h | 9692m | -19.6m/s | -39.7°C | 39.5% | 0hPa | 0V | 08:15:00 | 00:00:00 | 00:00:00 | |
| KE7DJD | 2026-08-30 19:03:06 | 43.51466 | -115.57373 | 137° | 75km/h | 10080m | -18.5m/s | -43.0°C | 27.0% | 0hPa | 0V | 08:15:00 | 00:00:00 | 00:00:00 | |
| KE7DJD | 2026-08-30 19:02:45 | 43.51770 | -115.57773 | 138° | 82km/h | 10446m | -17.2m/s | -46.2°C | 34.8% | 0hPa | 0V | 08:16:00 | 00:00:00 | 00:00:00 | |
| KE7DJD | 2026-08-30 19:02:24 | 43.52100 | -115.58185 | 138° | 84km/h | 10775m | -14.6m/s | -49.2°C | 35.9% | 0hPa | 0V | 08:16:00 | 00:00:00 | 00:00:00 | |
| KE7DJD | 2026-08-30 19:02:04 | 43.52401 | -115.58586 | 137° | 77km/h | 11089m | -16.1m/s | -51.7°C | 31.2% | 0hPa | 0V | 08:16:00 | 00:00:00 | 00:00:00 | |
| KE7DJD | 2026-08-30 19:01:43 | 43.52687 | -115.58999 | 134° | 78km/h | 11446m | -19.9m/s | -54.3°C | 30.8% | 0hPa | 0V | 08:17:00 | 00:00:00 | 00:00:00 | |
| KE7DJD | 2026-08-30 19:01:23 | 43.52875 | -115.59386 | 115° | 60km/h | 11847m | -18.6m/s | -55.4°C | 23.7% | 0hPa | 0V | 08:17:00 | 00:00:00 | 00:00:00 | |
| KE7DJD | 2026-08-30 19:01:02 | 43.53011 | -115.59779 | 116° | 60km/h | 12213m | -15.6m/s | -56.0°C | 14.6% | 0hPa | 0V | 08:17:00 | 00:00:00 | 00:00:00 | |
| KE7DJD | 2026-08-30 19:00:42 | 43.53102 | -115.60217 | 100° | 77km/h | 12525m | -15.4m/s | -55.3°C | 7.3% | 0hPa | 0V | 08:17:00 | 00:00:00 | 00:00:00 | |
| KE7DJD | 2026-08-30 19:00:21 | 43.53189 | -115.60655 | 104° | 44km/h | 12865m | -16.4m/s | -55.7°C | 5.2% | 0hPa | 0V | 08:17:00 | 00:00:00 | 00:00:00 | |
| KE7DJD | 2026-08-30 19:00:00 | 43.53213 | -115.61048 | 101° | 64km/h | 13202m | -15.6m/s | -55.9°C | 3.6% | 0hPa | 0V | 08:18:00 | 00:00:00 | 00:00:00 | |
| KE7DJD | 2026-08-30 18:59:39 | 43.53231 | -115.61541 | 94° | 69km/h | 13540m | -14.7m/s | -55.2°C | 2.9% | 0hPa | 0V | 08:18:00 | 00:00:00 | 00:00:00 | |
| KE7DJD | 2026-08-30 18:59:18 | 43.53242 | -115.61983 | 86° | 60km/h | 13903m | -17.3m/s | -54.4°C | 2.2% | 0hPa | 0V | 08:19:00 | 00:00:00 | 00:00:00 | |
| KE7DJD | 2026-08-30 18:58:57 | 43.53179 | -115.62385 | 79° | 62km/h | 14282m | -17.7m/s | -55.3°C | 2.0% | 0hPa | 0V | 08:19:00 | 00:00:00 | 00:00:00 | |
| KE7DJD | 2026-08-30 18:58:37 | 43.53134 | -115.62795 | 82° | 55km/h | 14640m | -17.4m/s | -54.9°C | 1.7% | 0hPa | 0V | 08:19:00 | 00:00:00 | 00:00:00 | |
| KE7DJD | 2026-08-30 18:58:16 | 43.53020 | -115.63180 | 69° | 58km/h | 14953m | -14.9m/s | -56.2°C | 1.9% | 0hPa | 0V | 08:20:00 | 00:00:00 | 00:00:00 | |
| KE7DJD | 2026-08-30 18:57:55 | 43.52924 | -115.63554 | 71° | 47km/h | 15265m | -15.3m/s | -55.7°C | 1.7% | 0hPa | 0V | 08:20:00 | 00:00:00 | 00:00:00 | |
| KE7DJD | 2026-08-30 18:57:34 | 43.52795 | -115.63912 | 58° | 62km/h | 15585m | -15.3m/s | -56.4°C | 1.8% | 0hPa | 0V | 08:21:00 | 00:00:00 | 00:00:00 | |
| KE7DJD | 2026-08-30 18:57:14 | 43.52645 | -115.64300 | 70° | 58km/h | 15899m | -15.7m/s | -56.3°C | 1.8% | 0hPa | 0V | 08:21:00 | 00:00:00 | 00:00:00 | |
| KE7DJD | 2026-08-30 18:56:52 | 43.52538 | -115.64701 | 70° | 60km/h | 16250m | -15.9m/s | -55.5°C | 1.7% | 0hPa | 0V | 08:21:00 | 00:00:00 | 00:00:00 | |
| KE7DJD | 2026-08-30 18:56:31 | 43.52431 | -115.65129 | 69° | 55km/h | 16604m | -16.8m/s | -54.7°C | 1.5% | 0hPa | 0V | 08:22:00 | 00:00:00 | 00:00:00 | |
| KE7DJD | 2026-08-30 18:56:11 | 43.52337 | -115.65459 | 84° | 46km/h | 16953m | -18.0m/s | -55.0°C | 1.5% | 0hPa | 0V | 08:22:00 | 00:00:00 | 00:00:00 | |
| KE7DJD | 2026-08-30 18:55:51 | 43.52286 | -115.65670 | 40° | 29km/h | 17344m | -22.2m/s | -54.0°C | 1.3% | 0hPa | 0V | 08:23:00 | 00:00:00 | 00:00:00 | |
| KE7DJD | 2026-08-30 18:55:30 | 43.52146 | -115.65890 | 56° | 38km/h | 17806m | -21.8m/s | -53.7°C | 1.2% | 0hPa | 0V | 08:23:00 | 00:00:00 | 00:00:00 | |
| KE7DJD | 2026-08-30 18:55:08 | 43.52040 | -115.66061 | 70° | 20km/h | 18270m | -23.1m/s | -56.4°C | 1.4% | 0hPa | 0V | 08:23:00 | 00:00:00 | 00:00:00 | |
| KE7DJD | 2026-08-30 18:54:48 | 43.52014 | -115.66162 | 58° | 16km/h | 18702m | -21.7m/s | -57.3°C | 1.6% | 0hPa | 0V | 08:23:00 | 00:00:00 | 00:00:00 | |
| KE7DJD | 2026-08-30 18:54:27 | 43.52034 | -115.66251 | 201° | 13km/h | 19187m | -21.6m/s | -54.5°C | 1.2% | 0hPa | 0V | 08:23:00 | 00:00:00 | 00:00:00 | |
| KE7DJD | 2026-08-30 18:54:06 | 43.52015 | -115.66162 | 326° | 27km/h | 19660m | -19.0m/s | -56.6°C | 1.4% | 0hPa | 0V | 08:24:00 | 00:00:00 | 00:00:00 | |
| KE7DJD | 2026-08-30 18:53:46 | 43.51915 | -115.66135 | 15° | 26km/h | 20121m | -21.5m/s | -56.6°C | 1.4% | 0hPa | 0V | 08:24:00 | 00:00:00 | 00:00:00 | |
| KE7DJD | 2026-08-30 18:53:25 | 43.51864 | -115.66178 | 255° | 9km/h | 20604m | -22.6m/s | -55.0°C | 1.3% | 0hPa | 0V | 08:25:00 | 00:00:00 | 00:00:00 | |
| KE7DJD | 2026-08-30 18:53:05 | 43.51794 | -115.66112 | 322° | 15km/h | 21134m | -27.7m/s | -54.8°C | 1.3% | 0hPa | 0V | 08:25:00 | 00:00:00 | 00:00:00 | |
| KE7DJD | 2026-08-30 18:52:44 | 43.51712 | -115.66029 | 361° | 20km/h | 21717m | -29.6m/s | -53.0°C | 1.1% | 0hPa | 0V | 08:25:00 | 00:00:00 | 00:00:00 | |
| KE7DJD | 2026-08-30 18:52:24 | 43.51633 | -115.65997 | 6° | 13km/h | 22284m | -30.4m/s | -53.3°C | 1.1% | 0hPa | 0V | 08:26:00 | 00:00:00 | 00:00:00 | |
| KE7DJD | 2026-08-30 18:52:04 | 43.51571 | -115.66013 | 58° | 16km/h | 22890m | -29.8m/s | -53.5°C | 1.1% | 0hPa | 0V | 08:26:00 | 00:00:00 | 00:00:00 | |
| KE7DJD | 2026-08-30 18:51:42 | 43.51579 | -115.65993 | 278° | 27km/h | 23555m | -31.2m/s | -52.6°C | 1.1% | 0hPa | 0V | 08:27:00 | 00:00:00 | 00:00:00 | |
| KE7DJD | 2026-08-30 18:51:22 | 43.51489 | -115.65828 | 327° | 26km/h | 24214m | -32.9m/s | -51.3°C | 1.0% | 0hPa | 0V | 08:27:00 | 00:00:00 | 00:00:00 | |
| KE7DJD | 2026-08-30 18:51:01 | 43.51439 | -115.65794 | 295° | 5km/h | 24959m | -37.2m/s | -48.9°C | 0.8% | 0hPa | 0V | 08:27:00 | 00:00:00 | 00:00:00 | |
| KE7DJD | 2026-08-30 18:50:40 | 43.51336 | -115.65792 | 10° | 22km/h | 25749m | -35.7m/s | -47.6°C | 0.7% | 0hPa | 0V | 08:28:00 | 00:00:00 | 00:00:00 | |
| KE7DJD | 2026-08-30 18:50:19 | 43.51282 | -115.65870 | 154° | 4km/h | 26512m | -35.4m/s | -47.5°C | 0.8% | 0hPa | 0V | 08:28:00 | 00:00:00 | 00:00:00 | |
| KE7DJD | 2026-08-30 18:49:58 | 43.51305 | -115.65904 | 221° | 16km/h | 27308m | -43.0m/s | -46.3°C | 0.7% | 0hPa | 0V | 08:29:00 | 00:00:00 | 00:00:00 | |
| KE7DJD | 2026-08-30 18:49:38 | 43.51356 | -115.65778 | 268° | 13km/h | 28141m | -45.1m/s | -45.7°C | 0.7% | 0hPa | 0V | 08:29:00 | 00:00:00 | 00:00:00 | |
| KE7DJD | 2026-08-30 18:48:58 | 43.51264 | -115.65578 | 299° | 27km/h | 30019m | -47.4m/s | -44.1°C | 0.6% | 0hPa | 0V | 00:00:00 | 00:00:00 | 00:00:00 | |
| KE7DJD | 2026-08-30 18:48:37 | 43.51133 | -115.65391 | 353° | 37km/h | 30994m | -50.7m/s | -42.0°C | 0.6% | 0hPa | 0V | 00:00:00 | 00:00:00 | 00:00:00 | |
| KE7DJD | 2026-08-30 18:48:17 | 43.50999 | -115.65327 | 340° | 22km/h | 32011m | -58.5m/s | -39.4°C | 0.5% | 0hPa | 0V | 00:00:00 | 00:00:00 | 00:00:00 | |
| KE7DJD | 2026-08-30 18:47:57 | 43.50960 | -115.65324 | 223° | 18km/h | 32993m | -46.7m/s | -34.9°C | 0.4% | 0hPa | 0V | 00:00:00 | 00:00:00 | 00:00:00 | |
| KE7DJD | 2026-08-30 18:47:36 | 43.50962 | -115.65288 | 30° | 22km/h | 33404m | 7.6m/s | -35.9°C | 0.4% | 0hPa | 0V | 00:00:00 | 00:00:00 | 00:00:00 | |
| KE7DJD | 2026-08-30 18:47:16 | 43.50940 | -115.65293 | 136° | 15km/h | 33280m | 1.2m/s | -35.6°C | 0.4% | 0hPa | 0V | 00:00:00 | 00:00:00 | 00:00:00 | |
| KE7DJD | 2026-08-30 18:46:55 | 43.50940 | -115.65269 | 282° | 9km/h | 33149m | 6.8m/s | -35.8°C | 0.4% | 0hPa | 0V | 00:00:00 | 00:00:00 | 00:00:00 | |
| KE7DJD | 2026-08-30 18:46:34 | 43.50962 | -115.65253 | 219° | 31km/h | 33025m | 2.3m/s | -35.5°C | 0.4% | 0hPa | 0V | 00:00:00 | 00:00:00 | 00:00:00 | |
| KE7DJD | 2026-08-30 18:46:14 | 43.51008 | -115.65294 | 114° | 22km/h | 32900m | 8.5m/s | -36.6°C | 0.4% | 0hPa | 0V | 00:00:00 | 00:00:00 | 00:00:00 | |
| KE7DJD | 2026-08-30 18:45:53 | 43.50995 | -115.65330 | 52° | 33km/h | 32776m | 5.3m/s | -38.7°C | 0.5% | 0hPa | 0V | 00:00:00 | 00:00:00 | 00:00:00 | |
| KE7DJD | 2026-08-30 18:45:32 | 43.50949 | -115.65349 | 86° | 29km/h | 32654m | 7.1m/s | -39.5°C | 0.5% | 0hPa | 0V | 00:00:00 | 00:00:00 | 00:00:00 | |
| KE7DJD | 2026-08-30 18:45:12 | 43.50922 | -115.65314 | 316° | 16km/h | 32537m | 5.1m/s | -39.4°C | 0.5% | 0hPa | 0V | 00:00:00 | 00:00:00 | 00:00:00 | |
| KE7DJD | 2026-08-30 18:44:44 | 43.50747 | -115.65254 | 335° | 58km/h | 32350m | 3.3m/s | -41.1°C | 0.5% | 0hPa | 0V | 00:00:00 | 00:00:00 | 00:00:00 | |
| KE7DJD | 2026-08-30 18:44:03 | 43.50478 | -115.65147 | 137° | 33km/h | 32071m | 9.0m/s | -40.4°C | 0.5% | 0hPa | 0V | 00:00:00 | 00:00:00 | 00:00:00 | |
| KE7DJD | 2026-08-30 18:43:33 | 43.50325 | -115.65073 | 185° | 11km/h | 31868m | 9.4m/s | -40.9°C | 0.5% | 0hPa | 0V | 00:00:00 | 00:00:00 | 00:00:00 | |
| KE7DJD | 2026-08-30 18:43:12 | 43.50196 | -115.64991 | 34° | 53km/h | 31722m | 8.8m/s | -40.8°C | 0.5% | 0hPa | 0V | 00:00:00 | 00:00:00 | 00:00:00 | |
| KE7DJD | 2026-08-30 18:42:52 | 43.50097 | -115.64902 | 244° | 44km/h | 31589m | 2.6m/s | -41.0°C | 0.5% | 0hPa | 0V | 00:00:00 | 00:00:00 | 00:00:00 | |
| KE7DJD | 2026-08-30 18:42:32 | 43.50019 | -115.64786 | 208° | 27km/h | 31456m | 9.7m/s | -41.9°C | 0.5% | 0hPa | 0V | 00:00:00 | 00:00:00 | 00:00:00 | |
| KE7DJD | 2026-08-30 18:42:11 | 43.49893 | -115.64716 | 51° | 66km/h | 31318m | 3.8m/s | -42.3°C | 0.6% | 0hPa | 0V | 00:00:00 | 00:00:00 | 00:00:00 | |
| KE7DJD | 2026-08-30 18:41:51 | 43.49721 | -115.64720 | 310° | 33km/h | 31196m | 0.4m/s | -43.3°C | 0.6% | 0hPa | 0V | 00:00:00 | 00:00:00 | 00:00:00 | |
| KE7DJD | 2026-08-30 18:41:31 | 43.49489 | -115.64689 | 326° | 5km/h | 31067m | 11.2m/s | -43.0°C | 0.6% | 0hPa | 0V | 00:00:00 | 00:00:00 | 00:00:00 | |
| KE7DJD | 2026-08-30 18:41:11 | 43.49279 | -115.64564 | 12° | 62km/h | 30935m | 7.5m/s | -43.0°C | 0.6% | 0hPa | 0V | 00:00:00 | 00:00:00 | 00:00:00 | |
| KE7DJD | 2026-08-30 18:40:50 | 43.49113 | -115.64413 | 327° | 80km/h | 30805m | 8.9m/s | -43.8°C | 0.6% | 0hPa | 0V | 00:00:00 | 00:00:00 | 00:00:00 | |
| KE7DJD | 2026-08-30 18:40:28 | 43.48957 | -115.64206 | 2° | 42km/h | 30657m | 10.9m/s | -43.5°C | 0.6% | 0hPa | 0V | 00:00:00 | 00:00:00 | 00:00:00 | |
| KE7DJD | 2026-08-30 18:40:07 | 43.48883 | -115.63932 | 289° | 73km/h | 30514m | 4.9m/s | -43.4°C | 0.6% | 0hPa | 0V | 00:00:00 | 00:00:00 | 00:00:00 | |
| KE7DJD | 2026-08-30 18:39:47 | 43.48832 | -115.63585 | 228° | 62km/h | 30385m | 10.6m/s | -44.5°C | 0.7% | 0hPa | 0V | 00:00:00 | 00:00:00 | 00:00:00 | |
| KE7DJD | 2026-08-30 18:39:22 | 43.48791 | -115.63290 | 85° | 20km/h | 30220m | 9.3m/s | -45.0°C | 0.7% | 0hPa | 0V | 00:00:00 | 00:00:00 | 00:00:00 | |
| KE7DJD | 2026-08-30 18:39:00 | 43.48734 | -115.63163 | 30° | 51km/h | 30073m | 2.9m/s | -45.1°C | 0.7% | 0hPa | 0V | 00:00:00 | 00:00:00 | 00:00:00 | |
| KE7DJD | 2026-08-30 18:38:39 | 43.48633 | -115.63081 | 255° | 31km/h | 29941m | 4.9m/s | -44.3°C | 0.7% | 0hPa | 0V | 00:00:00 | 00:00:00 | 00:00:00 | |
| KE7DJD | 2026-08-30 18:38:16 | 43.48451 | -115.62942 | 30° | 37km/h | 29794m | 11.3m/s | -44.0°C | 0.7% | 0hPa | 0V | 00:00:00 | 00:00:00 | 00:00:00 | |
| KE7DJD | 2026-08-30 18:37:55 | 43.48299 | -115.62802 | 357° | 57km/h | 29661m | 4.1m/s | -44.1°C | 0.7% | 0hPa | 0V | 00:00:00 | 00:00:00 | 00:00:00 | |
| KE7DJD | 2026-08-30 18:37:35 | 43.48240 | -115.62642 | 345° | 55km/h | 29526m | 3.3m/s | -43.5°C | 0.7% | 0hPa | 0V | 00:00:00 | 00:00:00 | 00:00:00 | |
| KE7DJD | 2026-08-30 18:37:14 | 43.48248 | -115.62447 | 144° | 22km/h | 29383m | 1.7m/s | -43.5°C | 0.7% | 0hPa | 0V | 00:00:00 | 00:00:00 | 00:00:00 | |
| KE7DJD | 2026-08-30 18:36:54 | 43.48324 | -115.62273 | 176° | 46km/h | 29245m | 2.6m/s | -43.0°C | 0.6% | 0hPa | 0V | 00:00:00 | 00:00:00 | 00:00:00 | |
| KE7DJD | 2026-08-30 18:36:31 | 43.48386 | -115.62140 | 227° | 46km/h | 29097m | 6.9m/s | -43.7°C | 0.7% | 0hPa | 0V | 00:00:00 | 00:00:00 | 00:00:00 | |
| KE7DJD | 2026-08-30 18:36:10 | 43.48433 | -115.62083 | 216° | 49km/h | 28960m | 6.5m/s | -44.3°C | 0.7% | 0hPa | 0V | 00:00:00 | 00:00:00 | 00:00:00 | |
| KE7DJD | 2026-08-30 18:35:48 | 43.48440 | -115.62029 | 231° | 27km/h | 28825m | 10.0m/s | -44.9°C | 0.7% | 0hPa | 0V | 00:00:00 | 00:00:00 | 00:00:00 | |
| KE7DJD | 2026-08-30 18:35:20 | 43.48452 | -115.61980 | 230° | 51km/h | 28642m | 3.3m/s | -45.4°C | 0.7% | 0hPa | 0V | 00:00:00 | 00:00:00 | 00:00:00 | |
| KE7DJD | 2026-08-30 18:34:49 | 43.48372 | -115.61844 | 36° | 38km/h | 28449m | 2.0m/s | -46.0°C | 0.7% | 0hPa | 0V | 00:00:00 | 00:00:00 | 00:00:00 | |
| KE7DJD | 2026-08-30 18:34:28 | 43.48326 | -115.61733 | 114° | 33km/h | 28317m | 7.8m/s | -46.8°C | 0.8% | 0hPa | 0V | 00:00:00 | 00:00:00 | 00:00:00 | |
| KE7DJD | 2026-08-30 18:34:08 | 43.48303 | -115.61606 | 52° | 15km/h | 28196m | 6.6m/s | -46.7°C | 0.8% | 0hPa | 0V | 00:00:00 | 00:00:00 | 00:00:00 | |
| KE7DJD | 2026-08-30 18:33:48 | 43.48302 | -115.61456 | 130° | 7km/h | 28069m | 5.7m/s | -46.5°C | 0.8% | 0hPa | 0V | 00:00:00 | 00:00:00 | 00:00:00 | |
| KE7DJD | 2026-08-30 18:33:23 | 43.48347 | -115.61197 | 239° | 69km/h | 27913m | 3.3m/s | -46.5°C | 0.8% | 0hPa | 0V | 00:00:00 | 00:00:00 | 00:00:00 | |
| KE7DJD | 2026-08-30 18:32:48 | 43.48485 | -115.60905 | 235° | 60km/h | 27693m | 6.0m/s | -46.2°C | 0.8% | 0hPa | 0V | 00:00:00 | 00:00:00 | 00:00:00 | |
| KE7DJD | 2026-08-30 18:32:18 | 43.48578 | -115.60718 | 189° | 51km/h | 27507m | 4.7m/s | -46.0°C | 0.8% | 0hPa | 0V | 00:00:00 | 00:00:00 | 00:00:00 | |
| KE7DJD | 2026-08-30 18:31:57 | 43.48617 | -115.60666 | 156° | 31km/h | 27370m | 3.2m/s | -46.2°C | 0.8% | 0hPa | 0V | 00:00:00 | 00:00:00 | 00:00:00 | |
| KE7DJD | 2026-08-30 18:31:35 | 43.48654 | -115.60634 | 80° | 16km/h | 27227m | 8.7m/s | -46.0°C | 0.8% | 0hPa | 0V | 00:00:00 | 00:00:00 | 00:00:00 | |
| KE7DJD | 2026-08-30 18:31:11 | 43.48668 | -115.60635 | 226° | 33km/h | 27078m | 7.9m/s | -45.7°C | 0.8% | 0hPa | 0V | 00:00:00 | 00:00:00 | 00:00:00 | |
| KE7DJD | 2026-08-30 18:30:50 | 43.48671 | -115.60678 | 167° | 38km/h | 26948m | 8.5m/s | -45.5°C | 0.8% | 0hPa | 0V | 00:00:00 | 00:00:00 | 00:00:00 | |
| KE7DJD | 2026-08-30 18:30:30 | 43.48644 | -115.60722 | 195° | 27km/h | 26829m | 2.5m/s | -45.3°C | 0.8% | 0hPa | 0V | 00:00:00 | 00:00:00 | 00:00:00 | |
| KE7DJD | 2026-08-30 18:30:09 | 43.48588 | -115.60802 | 196° | 24km/h | 26704m | 0.5m/s | -45.3°C | 0.8% | 0hPa | 0V | 00:00:00 | 00:00:00 | 00:00:00 | |
| KE7DJD | 2026-08-30 18:29:48 | 43.48529 | -115.60847 | 178° | 31km/h | 26582m | 1.4m/s | -46.2°C | 0.8% | 0hPa | 0V | 00:00:00 | 00:00:00 | 00:00:00 | |
| KE7DJD | 2026-08-30 18:29:27 | 43.48517 | -115.60878 | 190° | 29km/h | 26462m | -0.8m/s | -47.3°C | 0.8% | 0hPa | 0V | 00:00:00 | 00:00:00 | 00:00:00 | |
| KE7DJD | 2026-08-30 18:29:07 | 43.48523 | -115.60936 | 152° | 29km/h | 26342m | -0.2m/s | -47.7°C | 0.9% | 0hPa | 0V | 00:00:00 | 00:00:00 | 00:00:00 | |
| KE7DJD | 2026-08-30 18:28:46 | 43.48485 | -115.61066 | 116° | 22km/h | 26222m | 4.8m/s | -48.2°C | 0.9% | 0hPa | 0V | 00:00:00 | 00:00:00 | 00:00:00 | |
| KE7DJD | 2026-08-30 18:28:25 | 43.48377 | -115.61170 | 102° | 11km/h | 26090m | 1.4m/s | -48.4°C | 0.9% | 0hPa | 0V | 00:00:00 | 00:00:00 | 00:00:00 | |
| KE7DJD | 2026-08-30 18:28:05 | 43.48268 | -115.61253 | 187° | 20km/h | 25963m | 4.0m/s | -48.3°C | 0.9% | 0hPa | 0V | 00:00:00 | 00:00:00 | 00:00:00 | |
| KE7DJD | 2026-08-30 18:27:44 | 43.48186 | -115.61286 | 224° | 16km/h | 25830m | 1.2m/s | -47.9°C | 0.9% | 0hPa | 0V | 00:00:00 | 00:00:00 | 00:00:00 | |
| KE7DJD | 2026-08-30 18:27:24 | 43.48086 | -115.61330 | 320° | 4km/h | 25698m | 4.6m/s | -47.2°C | 0.8% | 0hPa | 0V | 00:00:00 | 00:00:00 | 00:00:00 | |
| KE7DJD | 2026-08-30 18:27:04 | 43.47963 | -115.61371 | 71° | 24km/h | 25571m | 2.0m/s | -48.5°C | 0.9% | 0hPa | 0V | 00:00:00 | 00:00:00 | 00:00:00 | |
| KE7DJD | 2026-08-30 18:26:43 | 43.47843 | -115.61384 | 51° | 35km/h | 25439m | 6.3m/s | -48.5°C | 0.9% | 0hPa | 0V | 00:00:00 | 00:00:00 | 00:00:00 | |
| KE7DJD | 2026-08-30 18:26:23 | 43.47794 | -115.61385 | 70° | 27km/h | 25316m | 4.8m/s | -48.8°C | 0.9% | 0hPa | 0V | 00:00:00 | 00:00:00 | 00:00:00 | |
| KE7DJD | 2026-08-30 18:25:57 | 43.47754 | -115.61351 | 101° | 26km/h | 25158m | 4.3m/s | -49.3°C | 1.0% | 0hPa | 0V | 00:00:00 | 00:00:00 | 00:00:00 | |
| KE7DJD | 2026-08-30 18:25:32 | 43.47729 | -115.61342 | 244° | 15km/h | 25016m | 8.0m/s | -49.8°C | 1.0% | 0hPa | 0V | 00:00:00 | 00:00:00 | 00:00:00 | |
| KE7DJD | 2026-08-30 18:24:31 | 43.47675 | -115.61309 | 171° | 18km/h | 24647m | 5.8m/s | -52.1°C | 1.0% | 0hPa | 0V | 00:00:00 | 00:00:00 | 00:00:00 | |
| KE7DJD | 2026-08-30 18:24:02 | 43.47645 | -115.61236 | 285° | 40km/h | 24476m | 2.9m/s | -52.2°C | 1.1% | 0hPa | 0V | 00:00:00 | 00:00:00 | 00:00:00 | |
| KE7DJD | 2026-08-30 18:23:41 | 43.47548 | -115.61084 | 3° | 13km/h | 24344m | 1.3m/s | -52.0°C | 1.1% | 0hPa | 0V | 00:00:00 | 00:00:00 | 00:00:00 | |
| KE7DJD | 2026-08-30 18:23:21 | 43.47493 | -115.60975 | 38° | 18km/h | 24222m | 3.9m/s | -52.6°C | 1.1% | 0hPa | 0V | 00:00:00 | 00:00:00 | 00:00:00 | |
| KE7DJD | 2026-08-30 18:23:01 | 43.47424 | -115.60806 | 345° | 33km/h | 24096m | 1.5m/s | -53.0°C | 1.1% | 0hPa | 0V | 00:00:00 | 00:00:00 | 00:00:00 | |
| KE7DJD | 2026-08-30 18:22:40 | 43.47345 | -115.60619 | 6° | 31km/h | 23980m | 3.1m/s | -53.3°C | 1.2% | 0hPa | 0V | 00:00:00 | 00:00:00 | 00:00:00 | |
| KE7DJD | 2026-08-30 18:22:19 | 43.47271 | -115.60346 | 297° | 46km/h | 23855m | 7.2m/s | -53.2°C | 1.2% | 0hPa | 0V | 00:00:00 | 00:00:00 | 00:00:00 | |
| KE7DJD | 2026-08-30 18:21:59 | 43.47236 | -115.60078 | 269° | 49km/h | 23736m | 6.8m/s | -52.7°C | 1.2% | 0hPa | 0V | 00:00:00 | 00:00:00 | 00:00:00 | |
| KE7DJD | 2026-08-30 18:21:38 | 43.47234 | -115.59845 | 262° | 49km/h | 23619m | 1.7m/s | -52.6°C | 1.1% | 0hPa | 0V | 00:00:00 | 00:00:00 | 00:00:00 | |
| KE7DJD | 2026-08-30 18:21:18 | 43.47270 | -115.59714 | 321° | 15km/h | 23507m | 6.8m/s | -52.5°C | 1.1% | 0hPa | 0V | 00:00:00 | 00:00:00 | 00:00:00 | |
| KE7DJD | 2026-08-30 18:20:58 | 43.47337 | -115.59650 | 3° | 13km/h | 23385m | 0.7m/s | -53.2°C | 1.2% | 0hPa | 0V | 00:00:00 | 00:00:00 | 00:00:00 | |
| KE7DJD | 2026-08-30 18:20:35 | 43.47389 | -115.59666 | 197° | 22km/h | 23266m | 2.9m/s | -52.8°C | 1.2% | 0hPa | 0V | 00:00:00 | 00:00:00 | 00:00:00 | |
| KE7DJD | 2026-08-30 18:20:13 | 43.47389 | -115.59756 | 62° | 46km/h | 23140m | 1.8m/s | -52.7°C | 1.1% | 0hPa | 0V | 00:00:00 | 00:00:00 | 00:00:00 | |
| KE7DJD | 2026-08-30 18:19:52 | 43.47337 | -115.59844 | 62° | 16km/h | 23016m | 6.1m/s | -53.6°C | 1.2% | 0hPa | 0V | 00:00:00 | 00:00:00 | 00:00:00 | |
| KE7DJD | 2026-08-30 18:19:32 | 43.47280 | -115.59906 | 50° | 16km/h | 22906m | 5.0m/s | -53.9°C | 1.2% | 0hPa | 0V | 00:00:00 | 00:00:00 | 00:00:00 | |
| KE7DJD | 2026-08-30 18:19:11 | 43.47218 | -115.59936 | 10° | 26km/h | 22787m | 8.2m/s | -54.1°C | 1.3% | 0hPa | 0V | 00:00:00 | 00:00:00 | 00:00:00 | |
| KE7DJD | 2026-08-30 18:18:51 | 43.47142 | -115.59934 | 7° | 31km/h | 22674m | 8.6m/s | -54.6°C | 1.3% | 0hPa | 0V | 00:00:00 | 00:00:00 | 00:00:00 | |
| KE7DJD | 2026-08-30 18:18:30 | 43.47059 | -115.59904 | 352° | 37km/h | 22550m | 5.0m/s | -53.7°C | 1.3% | 0hPa | 0V | 00:00:00 | 00:00:00 | 00:00:00 | |
| KE7DJD | 2026-08-30 18:18:09 | 43.46965 | -115.59848 | 246° | 27km/h | 22435m | 5.3m/s | -53.8°C | 1.3% | 0hPa | 0V | 00:00:00 | 00:00:00 | 00:00:00 | |
| KE7DJD | 2026-08-30 18:17:48 | 43.46865 | -115.59749 | 9° | 35km/h | 22308m | 3.1m/s | -53.2°C | 1.3% | 0hPa | 0V | 00:00:00 | 00:00:00 | 00:00:00 | |
| KE7DJD | 2026-08-30 18:17:27 | 43.46760 | -115.59665 | 266° | 7km/h | 22195m | 1.0m/s | -52.4°C | 1.2% | 0hPa | 0V | 00:00:00 | 00:00:00 | 00:00:00 | |
| KE7DJD | 2026-08-30 18:17:07 | 43.46680 | -115.59626 | 325° | 22km/h | 22082m | 7.0m/s | -52.2°C | 1.2% | 0hPa | 0V | 00:00:00 | 00:00:00 | 00:00:00 | |
| KE7DJD | 2026-08-30 18:16:47 | 43.46616 | -115.59587 | 0° | 0km/h | 21971m | 2.8m/s | -51.9°C | 1.2% | 0hPa | 0V | 00:00:00 | 00:00:00 | 00:00:00 | |
| KE7DJD | 2026-08-30 18:16:27 | 43.46532 | -115.59492 | 330° | 29km/h | 21857m | 3.4m/s | -52.0°C | 1.2% | 0hPa | 0V | 00:00:00 | 00:00:00 | 00:00:00 | |
| KE7DJD | 2026-08-30 18:16:06 | 43.46450 | -115.59423 | 356° | 4km/h | 21744m | 7.9m/s | -52.5°C | 1.2% | 0hPa | 0V | 00:00:00 | 00:00:00 | 00:00:00 | |
| KE7DJD | 2026-08-30 18:15:45 | 43.46353 | -115.59399 | 357° | 38km/h | 21625m | 6.6m/s | -52.6°C | 1.2% | 0hPa | 0V | 00:00:00 | 00:00:00 | 00:00:00 | |
| KE7DJD | 2026-08-30 18:15:25 | 43.46245 | -115.59325 | 268° | 26km/h | 21508m | 5.9m/s | -54.1°C | 1.3% | 0hPa | 0V | 00:00:00 | 00:00:00 | 00:00:00 | |
| KE7DJD | 2026-08-30 18:15:04 | 43.46214 | -115.59203 | 306° | 20km/h | 21384m | 4.2m/s | -54.5°C | 1.3% | 0hPa | 0V | 00:00:00 | 00:00:00 | 00:00:00 | |
| KE7DJD | 2026-08-30 18:14:44 | 43.46230 | -115.59099 | 243° | 24km/h | 21274m | 3.4m/s | -54.7°C | 1.4% | 0hPa | 0V | 00:00:00 | 00:00:00 | 00:00:00 | |
| KE7DJD | 2026-08-30 18:14:24 | 43.46206 | -115.59005 | 292° | 22km/h | 21155m | 5.9m/s | -55.0°C | 1.4% | 0hPa | 0V | 00:00:00 | 00:00:00 | 00:00:00 | |
| KE7DJD | 2026-08-30 18:14:02 | 43.46141 | -115.58958 | 41° | 15km/h | 21056m | 5.6m/s | -55.6°C | 1.4% | 0hPa | 0V | 00:00:00 | 00:00:00 | 00:00:00 | |
| KE7DJD | 2026-08-30 18:13:41 | 43.46046 | -115.58900 | 319° | 22km/h | 20940m | 5.6m/s | -55.8°C | 1.5% | 0hPa | 0V | 00:00:00 | 00:00:00 | 00:00:00 | |
| KE7DJD | 2026-08-30 18:13:20 | 43.46001 | -115.58775 | 293° | 31km/h | 20824m | 6.9m/s | -54.9°C | 1.4% | 0hPa | 0V | 00:00:00 | 00:00:00 | 00:00:00 | |
| KE7DJD | 2026-08-30 18:12:59 | 43.45989 | -115.58632 | 243° | 26km/h | 20711m | 5.5m/s | -55.4°C | 1.4% | 0hPa | 0V | 00:00:00 | 00:00:00 | 00:00:00 | |
| KE7DJD | 2026-08-30 18:12:38 | 43.45996 | -115.58569 | 162° | 15km/h | 20597m | 4.9m/s | -55.9°C | 1.4% | 0hPa | 0V | 00:00:00 | 00:00:00 | 00:00:00 | |
| KE7DJD | 2026-08-30 18:12:17 | 43.45967 | -115.58610 | 78° | 27km/h | 20486m | 6.6m/s | -56.8°C | 1.6% | 0hPa | 0V | 00:00:00 | 00:00:00 | 00:00:00 | |
| KE7DJD | 2026-08-30 18:11:56 | 43.45917 | -115.58689 | 44° | 18km/h | 20378m | 7.0m/s | -56.6°C | 1.5% | 0hPa | 0V | 00:00:00 | 00:00:00 | 00:00:00 | |
| KE7DJD | 2026-08-30 18:11:36 | 43.45824 | -115.58775 | 78° | 11km/h | 20270m | 6.8m/s | -56.3°C | 1.5% | 0hPa | 0V | 00:00:00 | 00:00:00 | 00:00:00 | |
| KE7DJD | 2026-08-30 18:11:15 | 43.45688 | -115.58798 | 350° | 31km/h | 20156m | 4.5m/s | -56.8°C | 1.5% | 0hPa | 0V | 00:00:00 | 00:00:00 | 00:00:00 | |
| KE7DJD | 2026-08-30 18:10:54 | 43.45580 | -115.58770 | 199° | 7km/h | 20035m | 2.5m/s | -56.4°C | 1.5% | 0hPa | 0V | 00:00:00 | 00:00:00 | 00:00:00 | |
| KE7DJD | 2026-08-30 18:10:33 | 43.45490 | -115.58727 | 15° | 24km/h | 19924m | 4.9m/s | -56.4°C | 1.5% | 0hPa | 0V | 00:00:00 | 00:00:00 | 00:00:00 | |
| KE7DJD | 2026-08-30 18:10:10 | 43.45359 | -115.58634 | 48° | 16km/h | 19797m | 4.3m/s | -55.6°C | 1.5% | 0hPa | 0V | 00:00:00 | 00:00:00 | 00:00:00 | |
| KE7DJD | 2026-08-30 18:09:49 | 43.45248 | -115.58521 | 294° | 29km/h | 19687m | 6.6m/s | -55.6°C | 1.4% | 0hPa | 0V | 00:00:00 | 00:00:00 | 00:00:00 | |
| KE7DJD | 2026-08-30 18:09:29 | 43.45179 | -115.58380 | 315° | 7km/h | 19582m | 6.5m/s | -55.9°C | 1.5% | 0hPa | 0V | 00:00:00 | 00:00:00 | 00:00:00 | |
| KE7DJD | 2026-08-30 18:09:08 | 43.45152 | -115.58237 | 338° | 13km/h | 19473m | 4.0m/s | -55.0°C | 1.4% | 0hPa | 0V | 00:00:00 | 00:00:00 | 00:00:00 | |
| KE7DJD | 2026-08-30 18:08:49 | 43.45151 | -115.58105 | 136° | 26km/h | 19350m | 3.9m/s | -54.5°C | 1.4% | 0hPa | 0V | 00:00:00 | 00:00:00 | 00:00:00 | |
| KE7DJD | 2026-08-30 18:08:27 | 43.45185 | -115.58040 | 200° | 37km/h | 19220m | 5.1m/s | -54.6°C | 1.4% | 0hPa | 0V | 00:00:00 | 00:00:00 | 00:00:00 | |
| KE7DJD | 2026-08-30 18:08:07 | 43.45276 | -115.58062 | 99° | 13km/h | 19114m | 3.8m/s | -54.9°C | 1.4% | 0hPa | 0V | 00:00:00 | 00:00:00 | 00:00:00 | |
| KE7DJD | 2026-08-30 18:07:46 | 43.45347 | -115.58153 | 81° | 20km/h | 19009m | 4.7m/s | -54.9°C | 1.4% | 0hPa | 0V | 00:00:00 | 00:00:00 | 00:00:00 | |
| KE7DJD | 2026-08-30 18:07:25 | 43.45371 | -115.58276 | 86° | 35km/h | 18907m | 6.3m/s | -56.6°C | 1.5% | 0hPa | 0V | 00:00:00 | 00:00:00 | 00:00:00 | |
| KE7DJD | 2026-08-30 18:07:05 | 43.45347 | -115.58442 | 98° | 33km/h | 18810m | 6.6m/s | -57.7°C | 1.6% | 0hPa | 0V | 00:00:00 | 00:00:00 | 00:00:00 | |
| KE7DJD | 2026-08-30 18:06:45 | 43.45321 | -115.58571 | 22° | 13km/h | 18703m | 4.1m/s | -57.4°C | 1.7% | 0hPa | 0V | 00:00:00 | 00:00:00 | 00:00:00 | |
| KE7DJD | 2026-08-30 18:06:25 | 43.45306 | -115.58645 | 69° | 18km/h | 18594m | 6.2m/s | -56.7°C | 1.6% | 0hPa | 0V | 00:00:00 | 00:00:00 | 00:00:00 | |
| KE7DJD | 2026-08-30 18:06:04 | 43.45314 | -115.58732 | 119° | 33km/h | 18490m | 4.3m/s | -56.3°C | 1.6% | 0hPa | 0V | 00:00:00 | 00:00:00 | 00:00:00 | |
| KE7DJD | 2026-08-30 18:05:43 | 43.45324 | -115.58850 | 92° | 35km/h | 18380m | 6.2m/s | -56.3°C | 1.5% | 0hPa | 0V | 00:00:00 | 00:00:00 | 00:00:00 | |
| KE7DJD | 2026-08-30 18:05:23 | 43.45324 | -115.59010 | 72° | 18km/h | 18276m | 4.5m/s | -56.6°C | 1.6% | 0hPa | 0V | 00:00:00 | 00:00:00 | 00:00:00 | |
| KE7DJD | 2026-08-30 18:05:02 | 43.45257 | -115.59196 | 42° | 29km/h | 18168m | 5.2m/s | -56.1°C | 1.5% | 0hPa | 0V | 00:00:00 | 00:00:00 | 00:00:00 | |
| KE7DJD | 2026-08-30 18:04:42 | 43.45156 | -115.59370 | 26° | 31km/h | 18063m | 7.0m/s | -55.7°C | 1.5% | 0hPa | 0V | 00:00:00 | 00:00:00 | 00:00:00 | |
| KE7DJD | 2026-08-30 18:04:21 | 43.45006 | -115.59530 | 61° | 40km/h | 17959m | 4.1m/s | -55.1°C | 1.5% | 0hPa | 0V | 00:00:00 | 00:00:00 | 00:00:00 | |
| KE7DJD | 2026-08-30 18:04:00 | 43.44865 | -115.59689 | 26° | 26km/h | 17855m | 4.0m/s | -54.3°C | 1.4% | 0hPa | 0V | 00:00:00 | 00:00:00 | 00:00:00 | |
| KE7DJD | 2026-08-30 18:03:40 | 43.44766 | -115.59908 | 60° | 49km/h | 17757m | 3.4m/s | -54.1°C | 1.5% | 0hPa | 0V | 00:00:00 | 00:00:00 | 00:00:00 | |
| KE7DJD | 2026-08-30 18:03:20 | 43.44631 | -115.60133 | 55° | 57km/h | 17654m | 4.7m/s | -54.7°C | 1.5% | 0hPa | 0V | 00:00:00 | 00:00:00 | 00:00:00 | |
| KE7DJD | 2026-08-30 18:03:00 | 43.44487 | -115.60365 | 45° | 64km/h | 17548m | 4.3m/s | -55.3°C | 1.6% | 0hPa | 0V | 00:00:00 | 00:00:00 | 00:00:00 | |
| KE7DJD | 2026-08-30 18:02:39 | 43.44350 | -115.60525 | 43° | 42km/h | 17443m | 5.5m/s | -54.7°C | 1.5% | 0hPa | 0V | 00:00:00 | 00:00:00 | 00:00:00 | |
| KE7DJD | 2026-08-30 18:02:19 | 43.44225 | -115.60660 | 83° | 11km/h | 17343m | 2.1m/s | -53.8°C | 1.5% | 0hPa | 0V | 00:00:00 | 00:00:00 | 00:00:00 | |
| KE7DJD | 2026-08-30 18:01:58 | 43.44111 | -115.60786 | 57° | 35km/h | 17237m | 5.2m/s | -53.4°C | 1.4% | 0hPa | 0V | 00:00:00 | 00:00:00 | 00:00:00 | |
| KE7DJD | 2026-08-30 18:01:37 | 43.44061 | -115.60968 | 80° | 49km/h | 17127m | 5.0m/s | -53.5°C | 1.4% | 0hPa | 0V | 00:00:00 | 00:00:00 | 00:00:00 | |
| KE7DJD | 2026-08-30 18:01:16 | 43.44004 | -115.61275 | 79° | 51km/h | 17024m | 5.1m/s | -54.7°C | 1.5% | 0hPa | 0V | 00:00:00 | 00:00:00 | 00:00:00 | |
| KE7DJD | 2026-08-30 18:00:55 | 43.43941 | -115.61664 | 71° | 51km/h | 16917m | 6.8m/s | -55.0°C | 1.6% | 0hPa | 0V | 00:00:00 | 00:00:00 | 00:00:00 | |
| KE7DJD | 2026-08-30 18:00:35 | 43.43842 | -115.62054 | 73° | 68km/h | 16813m | 5.9m/s | -54.6°C | 1.6% | 0hPa | 0V | 00:00:00 | 00:00:00 | 00:00:00 | |
| KE7DJD | 2026-08-30 18:00:14 | 43.43696 | -115.62479 | 56° | 64km/h | 16710m | 5.8m/s | -54.2°C | 1.5% | 0hPa | 0V | 00:00:00 | 00:00:00 | 00:00:00 | |
| KE7DJD | 2026-08-30 17:59:53 | 43.43578 | -115.62924 | 61° | 66km/h | 16604m | 4.0m/s | -53.9°C | 1.6% | 0hPa | 0V | 00:00:00 | 00:00:00 | 00:00:00 | |
| KE7DJD | 2026-08-30 17:59:33 | 43.43464 | -115.63329 | 62° | 55km/h | 16506m | 6.6m/s | -53.9°C | 1.5% | 0hPa | 0V | 00:00:00 | 00:00:00 | 00:00:00 | |
| KE7DJD | 2026-08-30 17:59:12 | 43.43353 | -115.63760 | 67° | 69km/h | 16401m | 6.5m/s | -56.3°C | 1.8% | 0hPa | 0V | 00:00:00 | 00:00:00 | 00:00:00 | |
| KE7DJD | 2026-08-30 17:58:52 | 43.43226 | -115.64169 | 70° | 66km/h | 16303m | 5.6m/s | -55.9°C | 1.8% | 0hPa | 0V | 00:00:00 | 00:00:00 | 00:00:00 | |
| KE7DJD | 2026-08-30 17:58:32 | 43.43098 | -115.64541 | 73° | 47km/h | 16206m | 3.3m/s | -55.6°C | 1.9% | 0hPa | 0V | 00:00:00 | 00:00:00 | 00:00:00 | |
| KE7DJD | 2026-08-30 17:58:11 | 43.42976 | -115.64884 | 57° | 57km/h | 16103m | 6.6m/s | -55.5°C | 1.9% | 0hPa | 0V | 00:00:00 | 00:00:00 | 00:00:00 | |
| KE7DJD | 2026-08-30 17:57:51 | 43.42856 | -115.65204 | 53° | 55km/h | 16007m | 5.4m/s | -55.4°C | 1.8% | 0hPa | 0V | 00:00:00 | 00:00:00 | 00:00:00 | |
| KE7DJD | 2026-08-30 17:57:30 | 43.42774 | -115.65582 | 77° | 64km/h | 15906m | 4.0m/s | -55.9°C | 1.9% | 0hPa | 0V | 00:00:00 | 00:00:00 | 00:00:00 | |
| KE7DJD | 2026-08-30 17:57:09 | 43.42656 | -115.66002 | 68° | 62km/h | 15806m | 5.3m/s | -55.9°C | 1.9% | 0hPa | 0V | 00:00:00 | 00:00:00 | 00:00:00 | |
| KE7DJD | 2026-08-30 17:56:48 | 43.42545 | -115.66393 | 66° | 57km/h | 15703m | 5.0m/s | -56.5°C | 1.9% | 0hPa | 0V | 00:00:00 | 00:00:00 | 00:00:00 | |
| KE7DJD | 2026-08-30 17:56:28 | 43.42401 | -115.66783 | 49° | 69km/h | 15608m | 4.7m/s | -56.5°C | 2.0% | 0hPa | 0V | 00:00:00 | 00:00:00 | 00:00:00 | |
| KE7DJD | 2026-08-30 17:56:07 | 43.42238 | -115.67151 | 55° | 68km/h | 15505m | 4.6m/s | -55.8°C | 1.9% | 0hPa | 0V | 00:00:00 | 00:00:00 | 00:00:00 | |
| KE7DJD | 2026-08-30 17:55:47 | 43.42108 | -115.67485 | 56° | 66km/h | 15410m | 3.6m/s | -55.6°C | 1.9% | 0hPa | 0V | 00:00:00 | 00:00:00 | 00:00:00 | |
| KE7DJD | 2026-08-30 17:55:26 | 43.41975 | -115.67851 | 68° | 60km/h | 15317m | 3.4m/s | -55.5°C | 1.9% | 0hPa | 0V | 00:00:00 | 00:00:00 | 00:00:00 | |
| KE7DJD | 2026-08-30 17:55:05 | 43.41866 | -115.68195 | 57° | 55km/h | 15221m | 4.5m/s | -55.2°C | 1.9% | 0hPa | 0V | 00:00:00 | 00:00:00 | 00:00:00 | |
| KE7DJD | 2026-08-30 17:54:45 | 43.41773 | -115.68526 | 73° | 57km/h | 15125m | 5.2m/s | -54.7°C | 1.9% | 0hPa | 0V | 00:00:00 | 00:00:00 | 00:00:00 | |
| KE7DJD | 2026-08-30 17:54:24 | 43.41680 | -115.68880 | 84° | 47km/h | 15029m | 5.1m/s | -54.8°C | 1.9% | 0hPa | 0V | 00:00:00 | 00:00:00 | 00:00:00 | |
| KE7DJD | 2026-08-30 17:54:03 | 43.41597 | -115.69251 | 80° | 55km/h | 14937m | 5.0m/s | -55.3°C | 2.0% | 0hPa | 0V | 00:00:00 | 00:00:00 | 00:00:00 | |
| KE7DJD | 2026-08-30 17:53:42 | 43.41500 | -115.69656 | 65° | 62km/h | 14835m | 6.3m/s | -55.1°C | 1.9% | 0hPa | 0V | 00:00:00 | 00:00:00 | 00:00:00 | |
| KE7DJD | 2026-08-30 17:53:22 | 43.41363 | -115.70042 | 67° | 71km/h | 14737m | 4.9m/s | -54.8°C | 2.0% | 0hPa | 0V | 00:00:00 | 00:00:00 | 00:00:00 | |
| KE7DJD | 2026-08-30 17:53:02 | 43.41233 | -115.70420 | 52° | 47km/h | 14630m | 5.2m/s | -54.4°C | 2.0% | 0hPa | 0V | 00:00:00 | 00:00:00 | 00:00:00 | |
| KE7DJD | 2026-08-30 17:52:41 | 43.41136 | -115.70830 | 84° | 66km/h | 14509m | 10.9m/s | -53.6°C | 2.0% | 0hPa | 0V | 00:00:00 | 00:00:00 | 00:00:00 | |
| KE7DJD | 2026-08-30 17:52:20 | 43.41119 | -115.71252 | 86° | 55km/h | 14368m | 5.1m/s | -54.0°C | 2.1% | 0hPa | 0V | 00:00:00 | 00:00:00 | 00:00:00 | |
| KE7DJD | 2026-08-30 17:52:01 | 43.41080 | -115.71714 | 84° | 62km/h | 14275m | 5.5m/s | -53.9°C | 2.2% | 0hPa | 0V | 00:00:00 | 00:00:00 | 00:00:00 | |
| KE7DJD | 2026-08-30 17:51:39 | 43.41029 | -115.72199 | 82° | 66km/h | 14169m | 6.5m/s | -54.3°C | 2.4% | 0hPa | 0V | 00:00:00 | 00:00:00 | 00:00:00 | |
| KE7DJD | 2026-08-30 17:51:18 | 43.40985 | -115.72647 | 92° | 64km/h | 14055m | 4.0m/s | -54.2°C | 2.6% | 0hPa | 0V | 00:00:00 | 00:00:00 | 00:00:00 | |
| KE7DJD | 2026-08-30 17:50:58 | 43.40991 | -115.73041 | 97° | 58km/h | 13953m | 4.0m/s | -54.2°C | 2.8% | 0hPa | 0V | 00:00:00 | 00:00:00 | 00:00:00 | |
| KE7DJD | 2026-08-30 17:50:37 | 43.41019 | -115.73471 | 83° | 55km/h | 13854m | 4.4m/s | -54.2°C | 3.0% | 0hPa | 0V | 00:00:00 | 00:00:00 | 00:00:00 | |
| KE7DJD | 2026-08-30 17:50:16 | 43.41039 | -115.73961 | 99° | 73km/h | 13757m | 5.5m/s | -55.3°C | 3.8% | 0hPa | 0V | 00:00:00 | 00:00:00 | 00:00:00 | |
| KE7DJD | 2026-08-30 17:49:56 | 43.41069 | -115.74464 | 97° | 75km/h | 13658m | 5.1m/s | -56.1°C | 4.2% | 0hPa | 0V | 00:00:00 | 00:00:00 | 00:00:00 | |
| KE7DJD | 2026-08-30 17:49:34 | 43.41097 | -115.74952 | 83° | 66km/h | 13559m | 5.0m/s | -56.0°C | 4.2% | 0hPa | 0V | 00:00:00 | 00:00:00 | 00:00:00 | |
| KE7DJD | 2026-08-30 17:49:14 | 43.41101 | -115.75419 | 90° | 51km/h | 13469m | 2.9m/s | -56.2°C | 4.6% | 0hPa | 0V | 00:00:00 | 00:00:00 | 00:00:00 | |
| KE7DJD | 2026-08-30 17:48:54 | 43.41096 | -115.75884 | 87° | 55km/h | 13380m | 2.8m/s | -56.2°C | 4.8% | 0hPa | 0V | 00:00:00 | 00:00:00 | 00:00:00 | |
| KE7DJD | 2026-08-30 17:48:34 | 43.41096 | -115.76365 | 86° | 69km/h | 13287m | 5.8m/s | -55.9°C | 5.0% | 0hPa | 0V | 00:00:00 | 00:00:00 | 00:00:00 | |
| KE7DJD | 2026-08-30 17:48:13 | 43.41064 | -115.76826 | 87° | 64km/h | 13199m | 4.9m/s | -55.4°C | 5.3% | 0hPa | 0V | 00:00:00 | 00:00:00 | 00:00:00 | |
| KE7DJD | 2026-08-30 17:47:53 | 43.41070 | -115.77278 | 92° | 64km/h | 13105m | 5.5m/s | -55.1°C | 5.8% | 0hPa | 0V | 00:00:00 | 00:00:00 | 00:00:00 | |
| KE7DJD | 2026-08-30 17:47:33 | 43.41081 | -115.77716 | 90° | 66km/h | 13013m | 5.2m/s | -55.7°C | 7.2% | 0hPa | 0V | 00:00:00 | 00:00:00 | 00:00:00 | |
| KE7DJD | 2026-08-30 17:47:12 | 43.41119 | -115.78189 | 97° | 66km/h | 12919m | 5.4m/s | -56.3°C | 8.6% | 0hPa | 0V | 00:00:00 | 00:00:00 | 00:00:00 | |
| KE7DJD | 2026-08-30 17:46:51 | 43.41169 | -115.78633 | 110° | 62km/h | 12821m | 4.2m/s | -56.1°C | 9.1% | 0hPa | 0V | 00:00:00 | 00:00:00 | 00:00:00 | |
| KE7DJD | 2026-08-30 17:46:31 | 43.41238 | -115.79030 | 108° | 71km/h | 12727m | 4.4m/s | -55.5°C | 9.0% | 0hPa | 0V | 00:00:00 | 00:00:00 | 00:00:00 | |
| KE7DJD | 2026-08-30 17:46:10 | 43.41330 | -115.79491 | 109° | 71km/h | 12631m | 6.1m/s | -55.0°C | 9.6% | 0hPa | 0V | 00:00:00 | 00:00:00 | 00:00:00 | |
| KE7DJD | 2026-08-30 17:45:50 | 43.41420 | -115.79979 | 102° | 78km/h | 12540m | 3.5m/s | -54.9°C | 10.4% | 0hPa | 0V | 00:00:00 | 00:00:00 | 00:00:00 | |
| KE7DJD | 2026-08-30 17:45:29 | 43.41521 | -115.80532 | 113° | 75km/h | 12448m | 4.1m/s | -55.2°C | 11.8% | 0hPa | 0V | 00:00:00 | 00:00:00 | 00:00:00 | |
| KE7DJD | 2026-08-30 17:45:08 | 43.41615 | -115.81018 | 99° | 68km/h | 12358m | 4.2m/s | -54.9°C | 13.1% | 0hPa | 0V | 00:00:00 | 00:00:00 | 00:00:00 | |
| KE7DJD | 2026-08-30 17:44:48 | 43.41675 | -115.81446 | 103° | 53km/h | 12272m | 6.0m/s | -54.6°C | 15.8% | 0hPa | 0V | 00:00:00 | 00:00:00 | 00:00:00 | |
| KE7DJD | 2026-08-30 17:44:27 | 43.41716 | -115.81893 | 137° | 51km/h | 12162m | 7.1m/s | -54.9°C | 23.2% | 0hPa | 0V | 00:00:00 | 00:00:00 | 00:00:00 | |
| KE7DJD | 2026-08-30 17:43:46 | 43.41992 | -115.82813 | 110° | 77km/h | 11961m | 5.3m/s | -56.1°C | 32.8% | 0hPa | 0V | 00:00:00 | 00:00:00 | 00:00:00 | |
| KE7DJD | 2026-08-30 17:43:26 | 43.42076 | -115.83258 | 108° | 60km/h | 11874m | 5.4m/s | -55.8°C | 32.7% | 0hPa | 0V | 00:00:00 | 00:00:00 | 00:00:00 | |
| KE7DJD | 2026-08-30 17:43:06 | 43.42151 | -115.83665 | 106° | 58km/h | 11785m | 4.6m/s | -55.5°C | 33.1% | 0hPa | 0V | 00:00:00 | 00:00:00 | 00:00:00 | |
| KE7DJD | 2026-08-30 17:42:26 | 43.42396 | -115.84413 | 119° | 60km/h | 11575m | 5.5m/s | -54.5°C | 28.5% | 0hPa | 0V | 00:00:00 | 00:00:00 | 00:00:00 | |
| KE7DJD | 2026-08-30 17:42:05 | 43.42610 | -115.84749 | 144° | 78km/h | 11477m | 3.7m/s | -54.1°C | 27.5% | 0hPa | 0V | 00:00:00 | 00:00:00 | 00:00:00 | |
| KE7DJD | 2026-08-30 17:41:45 | 43.42860 | -115.85065 | 139° | 71km/h | 11386m | 3.2m/s | -53.6°C | 27.4% | 0hPa | 0V | 00:00:00 | 00:00:00 | 00:00:00 | |
| KE7DJD | 2026-08-30 17:41:24 | 43.43139 | -115.85392 | 144° | 64km/h | 11291m | 4.9m/s | -52.8°C | 26.8% | 0hPa | 0V | 00:00:00 | 00:00:00 | 00:00:00 | |
| KE7DJD | 2026-08-30 17:41:04 | 43.43430 | -115.85703 | 148° | 73km/h | 11201m | 4.1m/s | -52.3°C | 27.3% | 0hPa | 0V | 00:00:00 | 00:00:00 | 00:00:00 | |
| KE7DJD | 2026-08-30 17:40:44 | 43.43738 | -115.86022 | 146° | 73km/h | 11109m | 6.1m/s | -51.7°C | 25.7% | 0hPa | 0V | 00:00:00 | 00:00:00 | 00:00:00 | |
| KE7DJD | 2026-08-30 17:40:23 | 43.44101 | -115.86361 | 144° | 93km/h | 11015m | 4.3m/s | -51.1°C | 27.0% | 0hPa | 0V | 00:00:00 | 00:00:00 | 00:00:00 | |
| KE7DJD | 2026-08-30 17:40:03 | 43.44463 | -115.86699 | 142° | 97km/h | 10928m | 4.2m/s | -50.5°C | 29.3% | 0hPa | 0V | 00:00:00 | 00:00:00 | 00:00:00 | |
| KE7DJD | 2026-08-30 17:39:43 | 43.44843 | -115.87047 | 140° | 88km/h | 10843m | 3.4m/s | -49.6°C | 27.7% | 0hPa | 0V | 00:00:00 | 00:00:00 | 00:00:00 | |
| KE7DJD | 2026-08-30 17:39:22 | 43.45249 | -115.87424 | 145° | 99km/h | 10752m | 4.6m/s | -48.8°C | 26.7% | 0hPa | 0V | 00:00:00 | 00:00:00 | 00:00:00 | |
| KE7DJD | 2026-08-30 17:39:02 | 43.45639 | -115.87775 | 147° | 89km/h | 10663m | 5.4m/s | -48.0°C | 25.6% | 0hPa | 0V | 00:00:00 | 00:00:00 | 00:00:00 | |
| KE7DJD | 2026-08-30 17:38:41 | 43.46047 | -115.88142 | 147° | 100km/h | 10574m | 5.5m/s | -47.3°C | 27.6% | 0hPa | 0V | 00:00:00 | 00:00:00 | 00:00:00 | |
| KE7DJD | 2026-08-30 17:38:21 | 43.46434 | -115.88481 | 151° | 89km/h | 10484m | 4.6m/s | -46.5°C | 29.2% | 0hPa | 0V | 00:00:00 | 00:00:00 | 00:00:00 | |
| KE7DJD | 2026-08-30 17:38:01 | 43.46807 | -115.88822 | 148° | 89km/h | 10397m | 4.0m/s | -45.7°C | 31.9% | 0hPa | 0V | 00:00:00 | 00:00:00 | 00:00:00 | |
| KE7DJD | 2026-08-30 17:37:40 | 43.47195 | -115.89184 | 148° | 91km/h | 10306m | 5.3m/s | -45.0°C | 29.3% | 0hPa | 0V | 00:00:00 | 00:00:00 | 00:00:00 | |
| KE7DJD | 2026-08-30 17:37:20 | 43.47563 | -115.89525 | 143° | 91km/h | 10218m | 4.0m/s | -44.1°C | 28.3% | 0hPa | 0V | 00:00:00 | 00:00:00 | 00:00:00 | |
| KE7DJD | 2026-08-30 17:37:00 | 43.47919 | -115.89850 | 146° | 97km/h | 10134m | 5.4m/s | -43.6°C | 28.5% | 0hPa | 0V | 00:00:00 | 00:00:00 | 00:00:00 | |
| KE7DJD | 2026-08-30 17:36:39 | 43.48283 | -115.90213 | 148° | 91km/h | 10043m | 4.0m/s | -42.8°C | 29.6% | 0hPa | 0V | 00:00:00 | 00:00:00 | 00:00:00 | |
| KE7DJD | 2026-08-30 17:36:18 | 43.48621 | -115.90564 | 142° | 77km/h | 9952m | 5.0m/s | -42.2°C | 30.4% | 0hPa | 0V | 00:00:00 | 00:00:00 | 00:00:00 | |
| KE7DJD | 2026-08-30 17:35:57 | 43.48944 | -115.90913 | 146° | 77km/h | 9861m | 5.7m/s | -41.6°C | 31.7% | 0hPa | 0V | 00:00:00 | 00:00:00 | 00:00:00 | |
| KE7DJD | 2026-08-30 17:35:38 | 43.49245 | -115.91247 | 148° | 66km/h | 9777m | 3.5m/s | -40.9°C | 35.6% | 0hPa | 0V | 00:00:00 | 00:00:00 | 00:00:00 | |
| KE7DJD | 2026-08-30 17:35:16 | 43.49555 | -115.91606 | 140° | 73km/h | 9688m | 5.2m/s | -40.2°C | 40.4% | 0hPa | 0V | 00:00:00 | 00:00:00 | 00:00:00 | |
| KE7DJD | 2026-08-30 17:34:56 | 43.49832 | -115.91958 | 135° | 80km/h | 9600m | 4.6m/s | -39.4°C | 35.7% | 0hPa | 0V | 00:00:00 | 00:00:00 | 00:00:00 | |
| KE7DJD | 2026-08-30 17:34:35 | 43.50121 | -115.92333 | 136° | 82km/h | 9509m | 5.0m/s | -38.7°C | 37.1% | 0hPa | 0V | 00:00:00 | 00:00:00 | 00:00:00 | |
| KE7DJD | 2026-08-30 17:34:14 | 43.50409 | -115.92731 | 138° | 71km/h | 9417m | 4.2m/s | -37.8°C | 36.2% | 0hPa | 0V | 00:00:00 | 00:00:00 | 00:00:00 | |
| KE7DJD | 2026-08-30 17:33:54 | 43.50687 | -115.93120 | 144° | 71km/h | 9337m | 3.5m/s | -37.2°C | 32.8% | 0hPa | 0V | 00:00:00 | 00:00:00 | 00:00:00 | |
| KE7DJD | 2026-08-30 17:33:33 | 43.50970 | -115.93519 | 136° | 82km/h | 9243m | 3.9m/s | -36.7°C | 41.4% | 0hPa | 0V | 00:00:00 | 00:00:00 | 00:00:00 | |
| KE7DJD | 2026-08-30 17:33:13 | 43.51213 | -115.93878 | 135° | 66km/h | 9153m | 5.1m/s | -36.1°C | 47.0% | 0hPa | 0V | 00:00:00 | 00:00:00 | 00:00:00 | |
| KE7DJD | 2026-08-30 17:32:53 | 43.51422 | -115.94260 | 128° | 88km/h | 9071m | 2.7m/s | -35.6°C | 51.5% | 0hPa | 0V | 00:00:00 | 00:00:00 | 00:00:00 | |
| KE7DJD | 2026-08-30 17:32:34 | 43.51608 | -115.94615 | 128° | 66km/h | 8981m | 5.2m/s | -35.0°C | 52.2% | 0hPa | 0V | 00:00:00 | 00:00:00 | 00:00:00 | |
| KE7DJD | 2026-08-30 17:32:12 | 43.51766 | -115.95010 | 119° | 60km/h | 8897m | 5.1m/s | -34.3°C | 50.7% | 0hPa | 0V | 00:00:00 | 00:00:00 | 00:00:00 | |
| KE7DJD | 2026-08-30 17:31:51 | 43.51921 | -115.95416 | 122° | 66km/h | 8809m | 2.9m/s | -33.5°C | 49.2% | 0hPa | 0V | 00:00:00 | 00:00:00 | 00:00:00 | |
| KE7DJD | 2026-08-30 17:31:31 | 43.52047 | -115.95815 | 120° | 62km/h | 8732m | 3.6m/s | -32.9°C | 49.1% | 0hPa | 0V | 00:00:00 | 00:00:00 | 00:00:00 | |
| KE7DJD | 2026-08-30 17:31:11 | 43.52187 | -115.96232 | 124° | 62km/h | 8649m | 3.9m/s | -32.4°C | 50.3% | 0hPa | 0V | 00:00:00 | 00:00:00 | 00:00:00 | |
| KE7DJD | 2026-08-30 17:30:50 | 43.52301 | -115.96655 | 103° | 66km/h | 8565m | 3.8m/s | -31.7°C | 48.2% | 0hPa | 0V | 00:00:00 | 00:00:00 | 00:00:00 | |
| KE7DJD | 2026-08-30 17:30:29 | 43.52418 | -115.97128 | 113° | 66km/h | 8482m | 3.8m/s | -31.1°C | 47.6% | 0hPa | 0V | 00:00:00 | 00:00:00 | 00:00:00 | |
| KE7DJD | 2026-08-30 17:30:09 | 43.52517 | -115.97594 | 117° | 68km/h | 8401m | 4.4m/s | -30.4°C | 46.7% | 0hPa | 0V | 00:00:00 | 00:00:00 | 00:00:00 | |
| KE7DJD | 2026-08-30 17:29:48 | 43.52616 | -115.98073 | 99° | 66km/h | 8318m | 4.3m/s | -29.8°C | 48.8% | 0hPa | 0V | 00:00:00 | 00:00:00 | 00:00:00 | |
| KE7DJD | 2026-08-30 17:29:27 | 43.52702 | -115.98565 | 108° | 64km/h | 8234m | 3.1m/s | -29.1°C | 49.7% | 0hPa | 0V | 00:00:00 | 00:00:00 | 00:00:00 | |
| KE7DJD | 2026-08-30 17:29:06 | 43.52793 | -115.99067 | 109° | 60km/h | 8142m | 3.3m/s | -28.4°C | 50.7% | 0hPa | 0V | 00:00:00 | 00:00:00 | 00:00:00 | |
| KE7DJD | 2026-08-30 17:28:45 | 43.52880 | -115.99573 | 111° | 69km/h | 8054m | 4.5m/s | -27.6°C | 50.3% | 0hPa | 0V | 00:00:00 | 00:00:00 | 00:00:00 | |
| KE7DJD | 2026-08-30 17:28:24 | 43.52971 | -116.00071 | 100° | 66km/h | 7969m | 5.0m/s | -26.8°C | 47.7% | 0hPa | 0V | 00:00:00 | 00:00:00 | 00:00:00 | |
| KE7DJD | 2026-08-30 17:28:04 | 43.53040 | -116.00562 | 92° | 73km/h | 7884m | 3.1m/s | -26.2°C | 48.2% | 0hPa | 0V | 00:00:00 | 00:00:00 | 00:00:00 | |
| KE7DJD | 2026-08-30 17:27:44 | 43.53107 | -116.01057 | 106° | 68km/h | 7796m | 4.4m/s | -25.4°C | 40.9% | 0hPa | 0V | 00:00:00 | 00:00:00 | 00:00:00 | |
| KE7DJD | 2026-08-30 17:27:24 | 43.53177 | -116.01545 | 109° | 78km/h | 7712m | 4.6m/s | -24.7°C | 38.6% | 0hPa | 0V | 00:00:00 | 00:00:00 | 00:00:00 | |
| KE7DJD | 2026-08-30 17:27:03 | 43.53263 | -116.02029 | 96° | 68km/h | 7611m | 4.6m/s | -23.8°C | 36.3% | 0hPa | 0V | 00:00:00 | 00:00:00 | 00:00:00 | |
| KE7DJD | 2026-08-30 17:26:43 | 43.53348 | -116.02458 | 103° | 60km/h | 7523m | 4.4m/s | -23.0°C | 33.9% | 0hPa | 0V | 00:00:00 | 00:00:00 | 00:00:00 | |
| KE7DJD | 2026-08-30 17:26:22 | 43.53436 | -116.02925 | 99° | 68km/h | 7438m | 3.0m/s | -22.4°C | 35.7% | 0hPa | 0V | 00:00:00 | 00:00:00 | 00:00:00 | |
| KE7DJD | 2026-08-30 17:26:01 | 43.53524 | -116.03391 | 116° | 58km/h | 7355m | 3.1m/s | -21.9°C | 33.3% | 0hPa | 0V | 00:00:00 | 00:00:00 | 00:00:00 | |
| KE7DJD | 2026-08-30 17:25:41 | 43.53629 | -116.03839 | 111° | 71km/h | 7273m | 4.5m/s | -21.3°C | 30.8% | 0hPa | 0V | 00:00:00 | 00:00:00 | 00:00:00 | |
| KE7DJD | 2026-08-30 17:25:20 | 43.53745 | -116.04241 | 121° | 49km/h | 7189m | 3.3m/s | -20.8°C | 17.6% | 0hPa | 0V | 00:00:00 | 00:00:00 | 00:00:00 | |
| KE7DJD | 2026-08-30 17:25:00 | 43.53856 | -116.04619 | 113° | 66km/h | 7109m | 4.2m/s | -20.1°C | 9.8% | 0hPa | 0V | 00:00:00 | 00:00:00 | 00:00:00 | |
| KE7DJD | 2026-08-30 17:24:40 | 43.53974 | -116.05026 | 109° | 66km/h | 7029m | 3.1m/s | -19.7°C | 6.1% | 0hPa | 0V | 00:00:00 | 00:00:00 | 00:00:00 | |
| KE7DJD | 2026-08-30 17:24:19 | 43.54077 | -116.05453 | 106° | 46km/h | 6949m | 3.3m/s | -19.3°C | 7.5% | 0hPa | 0V | 00:00:00 | 00:00:00 | 00:00:00 | |
| KE7DJD | 2026-08-30 17:23:58 | 43.54175 | -116.05878 | 114° | 64km/h | 6867m | 5.0m/s | -18.6°C | 8.4% | 0hPa | 0V | 00:00:00 | 00:00:00 | 00:00:00 | |
| KE7DJD | 2026-08-30 17:23:37 | 43.54272 | -116.06289 | 106° | 66km/h | 6785m | 2.5m/s | -17.9°C | 8.0% | 0hPa | 0V | 00:00:00 | 00:00:00 | 00:00:00 | |
| KE7DJD | 2026-08-30 17:23:17 | 43.54353 | -116.06664 | 102° | 57km/h | 6707m | 5.7m/s | -17.5°C | 10.3% | 0hPa | 0V | 00:00:00 | 00:00:00 | 00:00:00 | |
| KE7DJD | 2026-08-30 17:22:56 | 43.54432 | -116.07042 | 91° | 51km/h | 6612m | 4.1m/s | -16.8°C | 12.4% | 0hPa | 0V | 00:00:00 | 00:00:00 | 00:00:00 | |
| KE7DJD | 2026-08-30 17:22:14 | 43.54532 | -116.07839 | 97° | 58km/h | 6446m | 3.7m/s | -15.6°C | 13.6% | 0hPa | 0V | 00:00:00 | 00:00:00 | 00:00:00 | |
| KE7DJD | 2026-08-30 17:21:53 | 43.54590 | -116.08234 | 106° | 49km/h | 6367m | 3.8m/s | -15.0°C | 13.9% | 0hPa | 0V | 00:00:00 | 00:00:00 | 00:00:00 | |
| KE7DJD | 2026-08-30 17:21:32 | 43.54654 | -116.08618 | 109° | 68km/h | 6287m | 2.9m/s | -14.4°C | 12.0% | 0hPa | 0V | 00:00:00 | 00:00:00 | 00:00:00 | |
| KE7DJD | 2026-08-30 17:21:12 | 43.54697 | -116.08991 | 99° | 62km/h | 6204m | 4.6m/s | -13.8°C | 11.7% | 0hPa | 0V | 00:00:00 | 00:00:00 | 00:00:00 | |
| KE7DJD | 2026-08-30 17:20:51 | 43.54745 | -116.09401 | 105° | 57km/h | 6123m | 4.9m/s | -13.1°C | 10.9% | 0hPa | 0V | 00:00:00 | 00:00:00 | 00:00:00 | |
| KE7DJD | 2026-08-30 17:20:30 | 43.54791 | -116.09808 | 102° | 57km/h | 6035m | 4.5m/s | -12.5°C | 9.7% | 0hPa | 0V | 00:00:00 | 00:00:00 | 00:00:00 | |
| KE7DJD | 2026-08-30 17:20:09 | 43.54843 | -116.10211 | 96° | 53km/h | 5949m | 4.5m/s | -12.1°C | 10.9% | 0hPa | 0V | 00:00:00 | 00:00:00 | 00:00:00 | |
| KE7DJD | 2026-08-30 17:19:48 | 43.54923 | -116.10595 | 114° | 55km/h | 5859m | 4.4m/s | -11.7°C | 10.3% | 0hPa | 0V | 00:00:00 | 00:00:00 | 00:00:00 | |
| KE7DJD | 2026-08-30 17:19:27 | 43.55002 | -116.10955 | 113° | 47km/h | 5770m | 5.3m/s | -11.2°C | 8.7% | 0hPa | 0V | 00:00:00 | 00:00:00 | 00:00:00 | |
| KE7DJD | 2026-08-30 17:19:06 | 43.55070 | -116.11295 | 106° | 38km/h | 5682m | 4.4m/s | -10.9°C | 4.1% | 0hPa | 0V | 00:00:00 | 00:00:00 | 00:00:00 | |
| KE7DJD | 2026-08-30 17:18:45 | 43.55146 | -116.11601 | 104° | 46km/h | 5587m | 4.7m/s | -10.8°C | 4.7% | 0hPa | 0V | 00:00:00 | 00:00:00 | 00:00:00 | |
| KE7DJD | 2026-08-30 17:18:25 | 43.55216 | -116.11898 | 81° | 47km/h | 5485m | 5.6m/s | -10.1°C | 5.2% | 0hPa | 0V | 00:00:00 | 00:00:00 | 00:00:00 | |
| KE7DJD | 2026-08-30 17:18:05 | 43.55240 | -116.12200 | 130° | 42km/h | 5379m | 5.6m/s | -9.4°C | 4.7% | 0hPa | 0V | 00:00:00 | 00:00:00 | 00:00:00 | |
| KE7DJD | 2026-08-30 17:17:44 | 43.55285 | -116.12488 | 93° | 22km/h | 5278m | 3.9m/s | -8.8°C | 5.0% | 0hPa | 0V | 00:00:00 | 00:00:00 | 00:00:00 | |
| KE7DJD | 2026-08-30 17:17:23 | 43.55319 | -116.12771 | 107° | 55km/h | 5177m | 4.1m/s | -8.2°C | 6.8% | 0hPa | 0V | 00:00:00 | 00:00:00 | 00:00:00 | |
| KE7DJD | 2026-08-30 17:17:03 | 43.55340 | -116.13021 | 105° | 38km/h | 5093m | 5.8m/s | -7.5°C | 6.2% | 0hPa | 0V | 00:00:00 | 00:00:00 | 00:00:00 | |
| KE7DJD | 2026-08-30 17:16:42 | 43.55373 | -116.13328 | 99° | 49km/h | 4987m | 3.3m/s | -6.7°C | 5.2% | 0hPa | 0V | 00:00:00 | 00:00:00 | 00:00:00 | |
| KE7DJD | 2026-08-30 17:16:22 | 43.55367 | -116.13592 | 100° | 53km/h | 4885m | 5.9m/s | -6.8°C | 9.9% | 0hPa | 0V | 00:00:00 | 00:00:00 | 00:00:00 | |
| KE7DJD | 2026-08-30 17:16:01 | 43.55391 | -116.13907 | 117° | 40km/h | 4773m | 4.4m/s | -5.9°C | 9.2% | 0hPa | 0V | 00:00:00 | 00:00:00 | 00:00:00 | |
| KE7DJD | 2026-08-30 17:15:40 | 43.55410 | -116.14181 | 123° | 44km/h | 4666m | 8.2m/s | -5.1°C | 8.8% | 0hPa | 0V | 00:00:00 | 00:00:00 | 00:00:00 | |
| KE7DJD | 2026-08-30 17:15:19 | 43.55466 | -116.14452 | 125° | 27km/h | 4544m | 5.0m/s | -4.0°C | 7.1% | 0hPa | 0V | 00:00:00 | 00:00:00 | 00:00:00 | |
| KE7DJD | 2026-08-30 17:14:59 | 43.55475 | -116.14723 | 75° | 38km/h | 4436m | 4.7m/s | -3.2°C | 5.2% | 0hPa | 0V | 00:00:00 | 00:00:00 | 00:00:00 | |
| KE7DJD | 2026-08-30 17:14:39 | 43.55505 | -116.14958 | 96° | 38km/h | 4332m | 6.7m/s | -2.3°C | 7.4% | 0hPa | 0V | 00:00:00 | 00:00:00 | 00:00:00 | |
| KE7DJD | 2026-08-30 17:14:18 | 43.55528 | -116.15224 | 63° | 26km/h | 4214m | 4.8m/s | -1.3°C | 7.2% | 0hPa | 0V | 00:00:00 | 00:00:00 | 00:00:00 | |
| KE7DJD | 2026-08-30 17:13:57 | 43.55511 | -116.15451 | 117° | 26km/h | 4109m | 5.4m/s | -0.4°C | 4.9% | 0hPa | 0V | 00:00:00 | 00:00:00 | 00:00:00 | |
| KE7DJD | 2026-08-30 17:13:37 | 43.55502 | -116.15726 | 95° | 29km/h | 4012m | 7.0m/s | 0.4°C | 4.0% | 0hPa | 0V | 00:00:00 | 00:00:00 | 00:00:00 | |
| KE7DJD | 2026-08-30 17:13:16 | 43.55548 | -116.16024 | 114° | 55km/h | 3903m | 3.7m/s | -1.2°C | 13.0% | 0hPa | 0V | 00:00:00 | 00:00:00 | 00:00:00 | |
| KE7DJD | 2026-08-30 17:12:56 | 43.55588 | -116.16418 | 112° | 51km/h | 3809m | 4.1m/s | -0.8°C | 15.3% | 0hPa | 0V | 00:00:00 | 00:00:00 | 00:00:00 | |
| KE7DJD | 2026-08-30 17:12:35 | 43.55593 | -116.16792 | 111° | 51km/h | 3709m | 6.3m/s | -0.5°C | 16.2% | 0hPa | 0V | 00:00:00 | 00:00:00 | 00:00:00 | |
| KE7DJD | 2026-08-30 17:12:14 | 43.55603 | -116.17107 | 107° | 53km/h | 3610m | 4.7m/s | 0.2°C | 14.3% | 0hPa | 0V | 00:00:00 | 00:00:00 | 00:00:00 | |
| KE7DJD | 2026-08-30 17:11:53 | 43.55643 | -116.17385 | 103° | 53km/h | 3487m | 5.4m/s | 1.1°C | 14.4% | 0hPa | 0V | 00:00:00 | 00:00:00 | 00:00:00 | |
| KE7DJD | 2026-08-30 17:11:33 | 43.55685 | -116.17719 | 82° | 49km/h | 3375m | 6.3m/s | 1.8°C | 15.3% | 0hPa | 0V | 00:00:00 | 00:00:00 | 00:00:00 | |
| KE7DJD | 2026-08-30 17:11:13 | 43.55719 | -116.17997 | 83° | 24km/h | 3247m | 5.4m/s | 2.7°C | 14.7% | 0hPa | 0V | 00:00:00 | 00:00:00 | 00:00:00 | |
| KE7DJD | 2026-08-30 17:10:52 | 43.55762 | -116.18279 | 118° | 24km/h | 3128m | 5.3m/s | 3.2°C | 19.7% | 0hPa | 0V | 00:00:00 | 00:00:00 | 00:00:00 | |
| KE7DJD | 2026-08-30 17:10:32 | 43.55800 | -116.18503 | 113° | 27km/h | 3020m | 6.2m/s | 3.9°C | 20.3% | 0hPa | 0V | 00:00:00 | 00:00:00 | 00:00:00 | |
| KE7DJD | 2026-08-30 17:09:52 | 43.55916 | -116.19012 | 76° | 42km/h | 2789m | 5.5m/s | 5.4°C | 21.8% | 0hPa | 0V | 00:00:00 | 00:00:00 | 00:00:00 | |
| KE7DJD | 2026-08-30 17:09:30 | 43.55969 | -116.19249 | 69° | 38km/h | 2662m | 5.5m/s | 6.1°C | 20.5% | 0hPa | 0V | 00:00:00 | 00:00:00 | 00:00:00 | |
| KE7DJD | 2026-08-30 17:09:10 | 43.55995 | -116.19442 | 81° | 37km/h | 2541m | 4.8m/s | 6.8°C | 23.7% | 0hPa | 0V | 00:00:00 | 00:00:00 | 00:00:00 | |
| KE7DJD | 2026-08-30 17:08:49 | 43.56053 | -116.19662 | 110° | 29km/h | 2421m | 5.7m/s | 7.5°C | 21.8% | 0hPa | 0V | 00:00:00 | 00:00:00 | 00:00:00 | |
| KE7DJD | 2026-08-30 17:08:28 | 43.56127 | -116.19784 | 72° | 7km/h | 2299m | 5.5m/s | 7.6°C | 9.3% | 0hPa | 0V | 00:00:00 | 00:00:00 | 00:00:00 | |
| KE7DJD | 2026-08-30 17:08:07 | 43.56155 | -116.19931 | 61° | 20km/h | 2188m | 6.0m/s | 5.9°C | 21.7% | 0hPa | 0V | 00:00:00 | 00:00:00 | 00:00:00 | |
| KE7DJD | 2026-08-30 17:07:47 | 43.56216 | -116.20014 | 127° | 44km/h | 2073m | 5.2m/s | 5.4°C | 37.3% | 0hPa | 0V | 00:00:00 | 00:00:00 | 00:00:00 | |
| KE7DJD | 2026-08-30 17:07:26 | 43.56288 | -116.20135 | 101° | 37km/h | 1954m | 6.0m/s | 6.0°C | 46.6% | 0hPa | 0V | 00:00:00 | 00:00:00 | 00:00:00 | |
| KE7DJD | 2026-08-30 17:07:06 | 43.56362 | -116.20296 | 84° | 35km/h | 1855m | 6.2m/s | 6.7°C | 54.9% | 0hPa | 0V | 00:00:00 | 00:00:00 | 00:00:00 | |
| KE7DJD | 2026-08-30 17:06:45 | 43.56416 | -116.20459 | 85° | 31km/h | 1722m | 5.8m/s | 7.9°C | 43.0% | 0hPa | 0V | 00:00:00 | 00:00:00 | 00:00:00 | |
| KE7DJD | 2026-08-30 17:06:24 | 43.56486 | -116.20599 | 93° | 27km/h | 1594m | 5.5m/s | 8.7°C | 45.3% | 0hPa | 0V | 00:00:00 | 00:00:00 | 00:00:00 |